Time;durP1;ratioP1;P1;durP2;ratioP2;P2;SDS_P1;SDS_P2;PMS_P1;PMS_P2;Temp;Humidity;BMP_temperature;BMP_pressure;BME280_temperature;BME280_humidity;BME280_pressure;Samples;Min_cycle;Max_cycle;Signal;HPM_P1;HPM_P2
2022/02/06 00:01:32;;;;;;;6.95;2.90;;;18.30;95.90;;;;;;4229960;28;20550;-77
2022/02/06 00:03:34;;;;;;;5.05;2.30;;;18.30;95.90;;;;;;4230669;28;20213;-76
2022/02/06 00:05:37;;;;;;;5.53;2.65;;;18.30;95.90;;;;;;4230719;28;20221;-76
2022/02/06 00:07:41;;;;;;;5.32;2.60;;;18.30;96.00;;;;;;4229929;28;20658;-76
2022/02/06 00:09:45;;;;;;;6.63;2.80;;;18.30;96.00;;;;;;4221941;28;20210;-76
2022/02/06 00:11:48;;;;;;;6.03;2.88;;;18.30;96.00;;;;;;4213535;28;20219;-76
2022/02/06 00:13:50;;;;;;;5.40;2.50;;;18.30;95.90;;;;;;4220838;28;20758;-77
2022/02/06 00:15:53;;;;;;;4.90;2.22;;;18.30;95.90;;;;;;4230745;28;20202;-76
2022/02/06 00:17:55;;;;;;;5.85;2.60;;;18.30;95.90;;;;;;4230369;28;20263;-76
2022/02/06 00:19:57;;;;;;;4.13;2.40;;;18.30;96.00;;;;;;4230424;28;20614;-76
2022/02/06 00:22:02;;;;;;;5.93;2.78;;;18.30;96.10;;;;;;4230660;28;20213;-76
2022/02/06 00:24:10;;;;;;;4.50;2.17;;;18.30;95.90;;;;;;4229386;28;20268;-77
2022/02/06 00:26:21;;;;;;;5.85;2.80;;;18.30;95.90;;;;;;4230213;28;20269;-76
2022/02/06 00:28:35;;;;;;;4.10;2.30;;;18.20;96.00;;;;;;4230653;28;20975;-76
2022/02/06 00:30:42;;;;;;;6.00;2.50;;;18.30;96.10;;;;;;4213954;28;20218;-76
2022/02/06 00:32:49;;;;;;;4.38;2.30;;;18.30;96.10;;;;;;4213164;28;20287;-77
2022/02/06 00:39:32;;;;;;;5.68;2.65;;;18.20;96.00;;;;;;4233892;28;20201;-77
2022/02/06 00:41:35;;;;;;;3.83;2.13;;;18.20;96.00;;;;;;4232746;28;20254;-76
2022/02/06 00:43:38;;;;;;;7.72;2.90;;;18.20;96.00;;;;;;4233496;28;20236;-76
2022/02/06 00:45:40;;;;;;;6.00;2.45;;;18.20;96.10;;;;;;4224299;28;20274;-76
2022/02/06 00:47:44;;;;;;;4.88;2.17;;;18.10;96.10;;;;;;4231181;28;20214;-76
2022/02/06 00:49:47;;;;;;;4.68;2.10;;;18.20;96.10;;;;;;4231960;28;20217;-77
2022/02/06 00:51:55;;;;;;;4.53;2.33;;;18.10;96.10;;;;;;4230185;28;20222;-76
2022/02/06 00:53:57;;;;;;;4.80;2.28;;;18.20;96.10;;;;;;4216630;28;20751;-76
2022/02/06 00:56:00;;;;;;;4.63;2.55;;;18.10;96.00;;;;;;4231002;28;20602;-76
2022/02/06 00:58:03;;;;;;;5.75;2.70;;;18.20;96.10;;;;;;4231645;28;20221;-76
2022/02/06 01:00:07;;;;;;;4.93;2.25;;;18.20;96.10;;;;;;4232431;28;20213;-76
2022/02/06 01:02:09;;;;;;;3.72;2.30;;;18.10;96.20;;;;;;4231253;28;20222;-76
2022/02/06 01:04:13;;;;;;;4.88;2.35;;;18.10;96.10;;;;;;4218493;28;20631;-76
2022/02/06 01:06:15;;;;;;;6.38;2.65;;;18.20;96.10;;;;;;4232400;28;20209;-76
2022/02/06 01:08:17;;;;;;;6.28;2.17;;;18.20;96.10;;;;;;4232853;28;20210;-76
2022/02/06 01:10:20;;;;;;;5.28;2.45;;;18.20;96.10;;;;;;4233304;28;20603;-76
2022/02/06 01:12:27;;;;;;;6.85;2.40;;;18.20;96.10;;;;;;4232470;28;20218;-76
2022/02/06 01:14:45;;;;;;;4.63;2.33;;;18.20;96.40;;;;;;4232050;28;20286;-76
2022/02/06 01:16:57;;;;;;;4.47;1.83;;;18.20;96.00;;;;;;4232873;28;20217;-76
2022/02/06 01:19:03;;;;;;;3.88;2.05;;;18.10;96.00;;;;;;4233195;28;20218;-76
2022/02/06 01:21:13;;;;;;;4.38;2.10;;;18.20;96.10;;;;;;4232731;28;20267;-76
2022/02/06 01:23:22;;;;;;;7.93;2.40;;;18.10;96.10;;;;;;4233028;28;20214;-76
2022/02/06 01:25:29;;;;;;;3.70;1.98;;;18.20;96.10;;;;;;4232612;28;20214;-76
2022/02/06 01:27:53;;;;;;;4.75;2.67;;;18.20;96.10;;;;;;4223631;28;20218;-77
2022/02/06 01:30:00;;;;;;;3.65;1.95;;;18.10;96.10;;;;;;4227873;28;20210;-76
2022/02/06 01:32:06;;;;;;;4.10;2.25;;;18.10;96.40;;;;;;4230904;28;20255;-76
2022/02/06 01:34:10;;;;;;;5.35;2.25;;;18.20;96.10;;;;;;4229152;28;20234;-76
2022/02/06 01:36:23;;;;;;;3.35;1.98;;;18.10;96.00;;;;;;4230666;28;20210;-76
2022/02/06 01:38:30;;;;;;;4.90;2.33;;;18.10;96.10;;;;;;4230936;28;20259;-76
2022/02/06 01:40:40;;;;;;;5.05;2.40;;;18.10;96.10;;;;;;4231179;28;20206;-76
2022/02/06 01:42:48;;;;;;;5.40;2.25;;;18.10;96.10;;;;;;4230687;28;20221;-76
2022/02/06 01:45:03;;;;;;;3.65;1.92;;;18.10;96.10;;;;;;4230098;28;20221;-76
2022/02/06 02:01:37;;;;;;;5.57;2.13;;;18.10;96.30;;;;;;4230995;28;20202;-76
2022/02/06 02:03:46;;;;;;;5.05;2.00;;;18.10;96.20;;;;;;4230712;28;20678;-76
2022/02/06 02:06:19;;;;;;;5.78;2.55;;;18.00;96.30;;;;;;4229354;28;20275;-76
2022/02/06 02:11:03;;;;;;;4.10;2.03;;;18.00;96.40;;;;;;4204214;28;20271;-76
2022/02/06 02:13:35;;;;;;;5.13;2.20;;;18.00;96.40;;;;;;4230107;28;20221;-76
2022/02/06 02:16:25;;;;;;;5.57;2.13;;;18.00;96.50;;;;;;4229483;28;20699;-76
2022/02/06 02:26:22;;;;;;;5.20;2.15;;;18.00;96.50;;;;;;4209982;28;20790;-76
2022/02/06 02:31:03;;;;;;;4.38;2.00;;;18.00;96.50;;;;;;4206159;28;20210;-77
2022/02/06 02:45:18;;;;;;;4.13;1.90;;;17.90;96.70;;;;;;4184873;28;20291;-76
2022/02/06 02:47:23;;;;;;;2.97;1.77;;;17.90;96.70;;;;;;4209322;28;20222;-74
2022/02/06 02:49:30;;;;;;;4.45;2.13;;;17.90;96.60;;;;;;4209351;28;20223;-77
2022/02/06 02:51:47;;;;;;;4.38;1.95;;;18.00;96.70;;;;;;4209838;28;20244;-74
2022/02/06 02:53:54;;;;;;;4.95;1.80;;;18.00;96.70;;;;;;4207221;28;20280;-74
2022/02/06 02:56:09;;;;;;;4.05;1.95;;;18.00;96.70;;;;;;4208435;28;20272;-76
2022/02/06 02:58:27;;;;;;;3.40;1.90;;;17.90;96.70;;;;;;4209089;28;20236;-76
2022/02/06 03:00:38;;;;;;;5.55;2.20;;;17.90;96.70;;;;;;4208985;28;20207;-77
2022/02/06 03:02:42;;;;;;;4.47;2.00;;;17.90;96.70;;;;;;4209642;28;20203;-76
2022/02/06 03:04:50;;;;;;;5.85;2.00;;;17.90;96.70;;;;;;4209428;28;20230;-76
2022/02/06 03:06:53;;;;;;;3.97;2.13;;;17.90;96.80;;;;;;4209246;28;20222;-76
2022/02/06 03:08:57;;;;;;;4.25;2.00;;;17.90;96.90;;;;;;4209179;28;20215;-76
2022/02/06 03:11:06;;;;;;;4.18;2.00;;;17.90;96.80;;;;;;4209517;28;20266;-76
2022/02/06 03:13:14;;;;;;;3.85;1.60;;;17.90;96.80;;;;;;4209036;28;20214;-76
2022/02/06 03:15:31;;;;;;;5.45;1.98;;;17.90;96.80;;;;;;4210197;28;20270;-76
2022/02/06 03:17:36;;;;;;;4.57;1.75;;;17.90;96.90;;;;;;4209509;28;20218;-76
2022/02/06 03:19:52;;;;;;;4.82;2.10;;;17.90;96.90;;;;;;4208853;28;20233;-76
2022/02/06 03:21:54;;;;;;;3.42;1.92;;;17.90;97.00;;;;;;4206650;28;20244;-76
2022/02/06 03:24:06;;;;;;;2.85;1.85;;;17.90;97.00;;;;;;4208734;28;20645;-76
2022/02/06 03:26:09;;;;;;;4.63;2.08;;;17.90;97.00;;;;;;4208997;28;20625;-76
2022/02/06 03:28:11;;;;;;;4.45;1.90;;;17.90;97.00;;;;;;4208885;28;20228;-76
2022/02/06 03:30:13;;;;;;;5.68;1.90;;;17.90;97.10;;;;;;4209053;28;20226;-76
2022/02/06 03:32:17;;;;;;;3.70;1.88;;;17.90;97.10;;;;;;4208642;28;20214;-76
2022/02/06 03:34:20;;;;;;;5.43;1.70;;;17.90;97.10;;;;;;4208848;28;20614;-76
2022/02/06 03:36:28;;;;;;;5.43;1.80;;;17.90;97.10;;;;;;4201130;28;20659;-76
2022/02/06 03:38:30;;;;;;;3.83;2.08;;;17.90;97.10;;;;;;4197550;28;20276;-77
2022/02/06 03:40:38;;;;;;;4.55;1.70;;;17.90;97.10;;;;;;4197927;28;20231;-76
2022/02/06 03:42:53;;;;;;;4.60;2.08;;;17.90;97.10;;;;;;4197362;28;20271;-76
2022/02/06 03:45:02;;;;;;;5.68;2.05;;;17.90;97.40;;;;;;4196907;28;20289;-76
2022/02/06 03:47:08;;;;;;;4.57;1.95;;;17.90;97.10;;;;;;4197266;28;20327;-76
2022/02/06 03:49:15;;;;;;;3.72;1.98;;;17.90;97.10;;;;;;4196344;28;20223;-76
2022/02/06 03:51:20;;;;;;;3.17;1.55;;;17.80;97.20;;;;;;4197231;28;20215;-76
2022/02/06 03:53:25;;;;;;;2.90;1.83;;;17.90;97.20;;;;;;4195481;28;20249;-76
2022/02/06 03:55:30;;;;;;;3.28;1.80;;;17.90;97.20;;;;;;4196924;28;20249;-76
2022/02/06 03:57:32;;;;;;;4.90;1.90;;;17.90;97.30;;;;;;4197110;28;20265;-77
2022/02/06 03:59:35;;;;;;;3.75;1.70;;;17.90;97.30;;;;;;4196576;28;20246;-77
2022/02/06 04:01:38;;;;;;;3.45;1.90;;;17.90;97.40;;;;;;4196682;28;20630;-77
2022/02/06 04:03:42;;;;;;;5.18;2.08;;;17.80;97.30;;;;;;4196717;28;20219;-77
2022/02/06 04:05:48;;;;;;;4.43;1.92;;;17.80;97.40;;;;;;4196356;28;21909;-77
2022/02/06 04:07:52;;;;;;;3.95;1.85;;;17.80;97.50;;;;;;4196171;28;20219;-78
2022/02/06 04:09:56;;;;;;;6.22;1.83;;;17.80;97.50;;;;;;4197576;28;20215;-78
2022/02/06 04:12:01;;;;;;;5.55;2.08;;;17.80;97.60;;;;;;4197529;28;20272;-77
2022/02/06 04:14:17;;;;;;;3.13;1.80;;;17.80;97.60;;;;;;4197323;28;20215;-77
2022/02/06 04:16:26;;;;;;;4.82;1.83;;;17.80;97.60;;;;;;4196878;28;20626;-77
2022/02/06 04:18:36;;;;;;;4.47;1.88;;;17.80;97.70;;;;;;4197041;28;20206;-77
2022/02/06 04:20:39;;;;;;;4.10;1.95;;;17.80;98.00;;;;;;4192302;28;20211;-77
2022/02/06 04:22:43;;;;;;;3.55;1.88;;;17.80;97.70;;;;;;4195909;28;20211;-77
2022/02/06 04:24:46;;;;;;;4.40;1.77;;;17.80;97.70;;;;;;4195608;28;20285;-77
2022/02/06 04:26:53;;;;;;;3.50;1.70;;;17.80;97.80;;;;;;4196278;28;20215;-78
2022/02/06 04:28:55;;;;;;;4.93;2.00;;;17.70;97.80;;;;;;4195726;28;20280;-77
2022/02/06 04:30:58;;;;;;;3.25;1.60;;;17.70;97.80;;;;;;4195959;28;20223;-78
2022/02/06 04:33:06;;;;;;;5.65;1.73;;;17.70;97.80;;;;;;4195999;28;20215;-77
2022/02/06 04:35:16;;;;;;;4.63;1.92;;;17.80;97.90;;;;;;4196124;28;20218;-77
2022/02/06 04:37:26;;;;;;;4.05;1.70;;;17.80;97.90;;;;;;4196097;28;20261;-77
2022/02/06 04:42:01;;;;;;;3.95;1.65;;;17.80;97.90;;;;;;4195922;28;21004;-77
2022/02/06 04:51:57;;;;;;;4.25;1.90;;;17.70;98.00;;;;;;4195856;28;20203;-77
2022/02/06 05:15:28;;;;;;;4.90;2.08;;;17.60;98.40;;;;;;4194715;28;20184;-78
2022/02/06 05:24:55;;;;;;;3.88;1.60;;;17.70;98.50;;;;;;4180737;28;20278;-77
2022/02/06 05:27:21;;;;;;;3.58;1.60;;;17.70;98.50;;;;;;4178429;28;20266;-77
2022/02/06 05:29:56;;;;;;;3.17;1.50;;;17.60;98.50;;;;;;4178174;28;20310;-78
2022/02/06 05:32:16;;;;;;;5.88;1.60;;;17.60;98.50;;;;;;4177832;28;20207;-77
2022/02/06 05:34:19;;;;;;;4.10;2.10;;;17.70;98.60;;;;;;4177333;28;20224;-78
2022/02/06 05:36:29;;;;;;;4.25;2.10;;;17.70;98.60;;;;;;4180088;28;20258;-77
2022/02/06 05:38:32;;;;;;;3.63;1.58;;;17.60;98.60;;;;;;4179850;28;20289;-78
2022/02/06 05:40:34;;;;;;;4.25;1.92;;;17.70;98.60;;;;;;4180598;28;20619;-77
2022/02/06 05:42:39;;;;;;;2.63;1.50;;;17.70;98.70;;;;;;4178396;28;20278;-78
2022/02/06 05:44:54;;;;;;;4.43;2.00;;;17.70;98.70;;;;;;4180253;28;20633;-77
2022/02/06 05:46:57;;;;;;;3.53;1.60;;;17.70;98.70;;;;;;4179818;28;20261;-77
2022/02/06 05:49:01;;;;;;;2.55;1.38;;;17.70;98.70;;;;;;4178758;28;20216;-78
2022/02/06 05:51:05;;;;;;;3.65;1.50;;;17.70;98.90;;;;;;4179437;28;20266;-78
2022/02/06 05:53:07;;;;;;;2.80;1.55;;;17.70;98.70;;;;;;4180152;28;20590;-77
2022/02/06 05:55:11;;;;;;;3.80;1.63;;;17.70;98.80;;;;;;4179543;28;20262;-77
2022/02/06 05:57:14;;;;;;;3.45;1.65;;;17.70;98.80;;;;;;4176674;28;20270;-78
2022/02/06 05:59:20;;;;;;;3.63;1.60;;;17.70;98.80;;;;;;4177468;28;20219;-77
2022/02/06 06:01:25;;;;;;;3.63;1.75;;;17.70;98.80;;;;;;4178912;28;20269;-77
2022/02/06 06:03:27;;;;;;;4.07;1.80;;;17.60;98.90;;;;;;4179248;28;20216;-77
2022/02/06 06:05:30;;;;;;;4.60;1.73;;;17.60;98.90;;;;;;4177818;28;20672;-77
2022/02/06 06:07:32;;;;;;;3.45;1.55;;;17.70;99.00;;;;;;4178108;28;20274;-77
2022/02/06 06:09:50;;;;;;;3.83;1.63;;;17.70;99.00;;;;;;4178634;28;20644;-78
2022/02/06 06:11:54;;;;;;;3.30;1.67;;;17.60;98.90;;;;;;4179357;28;20223;-78
2022/02/06 06:13:58;;;;;;;3.50;1.77;;;17.60;99.20;;;;;;4179531;28;20212;-77
2022/02/06 06:16:00;;;;;;;3.20;1.60;;;17.60;99.10;;;;;;4179607;28;20692;-77
2022/02/06 06:18:08;;;;;;;2.67;1.35;;;17.60;99.10;;;;;;4179806;28;20262;-78
2022/02/06 06:20:15;;;;;;;3.67;1.77;;;17.60;99.10;;;;;;4177835;28;20215;-78
2022/02/06 06:22:23;;;;;;;3.58;1.80;;;17.60;99.10;;;;;;4180178;28;20622;-78
2022/02/06 06:24:27;;;;;;;3.97;1.70;;;17.60;99.10;;;;;;4186088;28;20288;-78
2022/02/06 06:26:34;;;;;;;3.38;1.20;;;17.60;99.20;;;;;;4194374;28;20625;-77
2022/02/06 06:28:36;;;;;;;4.03;1.85;;;17.60;99.10;;;;;;4195434;28;20238;-77
2022/02/06 06:30:41;;;;;;;3.35;1.65;;;17.50;99.20;;;;;;4196702;28;20261;-77
2022/02/06 06:32:46;;;;;;;4.07;1.40;;;17.60;99.30;;;;;;4196833;28;20215;-77
2022/02/06 06:34:51;;;;;;;3.97;1.80;;;17.50;99.20;;;;;;4194616;28;20211;-77
2022/02/06 06:36:56;;;;;;;4.80;1.55;;;17.60;99.30;;;;;;4195938;28;20262;-78
2022/02/06 06:38:58;;;;;;;3.97;1.63;;;17.60;99.30;;;;;;4195064;28;20269;-78
2022/02/06 06:41:02;;;;;;;3.45;1.67;;;17.60;99.30;;;;;;4194639;28;20261;-77
2022/02/06 06:43:04;;;;;;;4.25;1.80;;;17.60;99.40;;;;;;4193929;28;20289;-78
2022/02/06 06:45:08;;;;;;;2.92;1.52;;;17.60;99.40;;;;;;4196876;28;20268;-77
2022/02/06 06:47:13;;;;;;;3.38;1.80;;;17.50;99.40;;;;;;4196396;28;20261;-78
2022/02/06 06:49:15;;;;;;;3.88;1.55;;;17.50;99.50;;;;;;4194659;28;20621;-77
2022/02/06 06:51:19;;;;;;;4.78;1.83;;;17.50;99.50;;;;;;4192686;28;20960;-77
2022/02/06 06:53:22;;;;;;;3.75;1.60;;;17.50;99.50;;;;;;4196501;28;20273;-77
2022/02/06 06:55:26;;;;;;;3.38;1.50;;;17.50;99.50;;;;;;4193020;28;20346;-78
2022/02/06 06:57:33;;;;;;;3.67;1.80;;;17.50;99.60;;;;;;4193130;28;20211;-76
2022/02/06 06:59:57;;;;;;;3.78;1.70;;;17.50;99.60;;;;;;4193747;28;20617;-76
2022/02/06 07:02:17;;;;;;;2.85;1.45;;;17.50;99.60;;;;;;4195062;28;20206;-76
2022/02/06 07:04:22;;;;;;;5.13;1.80;;;17.50;99.70;;;;;;4194162;28;20262;-76
2022/02/06 07:06:25;;;;;;;3.65;1.77;;;17.50;99.70;;;;;;4196323;28;20285;-76
2022/02/06 07:08:28;;;;;;;3.88;1.80;;;17.50;99.90;;;;;;4194486;28;20219;-76
2022/02/06 07:10:30;;;;;;;5.47;1.83;;;17.50;99.80;;;;;;4197616;28;20207;-76
2022/02/06 07:12:32;;;;;;;4.53;1.50;;;17.50;99.70;;;;;;4199701;28;20276;-76
2022/02/06 07:14:38;;;;;;;3.63;1.52;;;17.50;99.80;;;;;;4196811;28;20258;-76
2022/02/06 07:16:47;;;;;;;3.63;1.45;;;17.50;99.80;;;;;;4194917;28;20687;-76
2022/02/06 07:18:50;;;;;;;3.33;1.80;;;17.50;99.80;;;;;;4196971;28;20219;-76
2022/02/06 07:20:52;;;;;;;3.22;1.80;;;17.50;99.80;;;;;;4197858;28;20253;-76
2022/02/06 07:22:57;;;;;;;2.40;1.33;;;17.50;99.80;;;;;;4195171;28;20466;-76
2022/02/06 07:25:00;;;;;;;3.65;1.50;;;17.50;99.90;;;;;;4197755;28;20288;-76
2022/02/06 07:27:04;;;;;;;2.97;1.38;;;17.50;99.90;;;;;;4197843;28;20234;-76
2022/02/06 07:29:10;;;;;;;4.15;1.42;;;17.50;99.90;;;;;;4197527;28;20211;-77
2022/02/06 07:31:12;;;;;;;3.08;1.35;;;17.50;99.90;;;;;;4197325;28;20276;-76
2022/02/06 07:33:20;;;;;;;4.68;1.50;;;17.50;99.90;;;;;;4197679;28;20245;-76
2022/02/06 07:35:22;;;;;;;3.70;1.55;;;17.50;99.90;;;;;;4194826;28;20224;-76
2022/02/06 07:37:24;;;;;;;3.40;1.60;;;17.50;99.90;;;;;;4197442;28;20269;-76
2022/02/06 07:39:28;;;;;;;3.22;1.30;;;17.50;99.90;;;;;;4197614;28;20684;-77
2022/02/06 07:41:30;;;;;;;2.40;1.30;;;17.50;99.90;;;;;;4197452;28;20231;-76
2022/02/06 07:43:33;;;;;;;3.10;1.60;;;17.50;99.90;;;;;;4197281;28;20261;-76
2022/02/06 07:45:36;;;;;;;3.30;1.50;;;17.50;99.90;;;;;;4196976;28;20219;-76
2022/02/06 07:47:42;;;;;;;4.15;1.50;;;17.50;99.90;;;;;;4197139;28;20285;-76
2022/02/06 07:49:48;;;;;;;2.38;1.30;;;17.50;99.90;;;;;;4197369;28;20253;-76
2022/02/06 07:51:53;;;;;;;2.67;1.10;;;17.50;99.90;;;;;;4196647;28;20793;-76
2022/02/06 07:53:55;;;;;;;3.83;1.67;;;17.50;99.90;;;;;;4195743;28;20218;-76
2022/02/06 07:55:59;;;;;;;3.05;1.33;;;17.50;99.90;;;;;;4194743;28;20284;-76
2022/02/06 07:58:01;;;;;;;3.55;1.65;;;17.50;99.90;;;;;;4197291;28;20203;-76
2022/02/06 08:00:07;;;;;;;2.50;1.30;;;17.50;99.90;;;;;;4197392;28;20261;-76
2022/02/06 08:02:10;;;;;;;3.30;1.80;;;17.50;99.90;;;;;;4196770;28;20277;-76
2022/02/06 08:04:12;;;;;;;3.03;1.38;;;17.50;99.90;;;;;;4196261;28;20639;-76
2022/02/06 08:06:16;;;;;;;2.05;1.30;;;17.50;99.90;;;;;;4196675;28;20211;-76
2022/02/06 08:08:23;;;;;;;2.78;1.30;;;17.40;99.90;;;;;;4195292;28;20699;-77
2022/02/06 08:10:26;;;;;;;3.40;1.40;;;17.40;99.90;;;;;;4196270;28;20567;-77
2022/02/06 08:12:35;;;;;;;2.50;1.40;;;17.50;99.90;;;;;;4196751;28;20215;-76
2022/02/06 08:14:51;;;;;;;2.92;1.40;;;17.40;99.90;;;;;;4194684;28;20206;-76
2022/02/06 08:16:53;;;;;;;3.20;1.58;;;17.50;99.90;;;;;;4194886;28;20207;-76
2022/02/06 08:18:58;;;;;;;2.08;1.58;;;17.50;99.90;;;;;;4196893;28;20684;-76
2022/02/06 08:21:00;;;;;;;4.53;1.60;;;17.40;99.90;;;;;;4194509;28;20253;-77
2022/02/06 08:23:02;;;;;;;3.53;1.33;;;17.40;99.90;;;;;;4196510;28;20223;-76
2022/02/06 08:25:09;;;;;;;3.25;1.48;;;17.40;99.90;;;;;;4196730;28;20235;-76
2022/02/06 08:27:22;;;;;;;3.47;1.40;;;17.40;99.90;;;;;;4196388;28;20301;-76
2022/02/06 08:29:26;;;;;;;3.25;1.27;;;17.40;99.90;;;;;;4194992;28;20210;-76
2022/02/06 08:31:37;;;;;;;3.85;1.42;;;17.40;99.90;;;;;;4196608;28;20325;-76
2022/02/06 08:33:41;;;;;;;2.65;1.30;;;17.40;99.90;;;;;;4197364;28;20206;-76
2022/02/06 08:35:45;;;;;;;2.97;1.13;;;17.40;99.90;;;;;;4196466;28;20211;-77
2022/02/06 08:37:59;;;;;;;3.75;1.33;;;17.40;99.90;;;;;;4196171;28;20211;-77
2022/02/06 08:40:06;;;;;;;2.55;1.35;;;17.40;99.90;;;;;;4196727;28;20207;-76
2022/02/06 08:42:10;;;;;;;2.38;1.15;;;17.40;99.90;;;;;;4195923;28;20268;-76
2022/02/06 08:44:12;;;;;;;4.68;1.23;;;17.40;99.90;;;;;;4197352;28;20873;-77
2022/02/06 08:46:16;;;;;;;2.38;1.30;;;17.40;99.90;;;;;;4196278;28;20261;-76
2022/02/06 08:48:21;;;;;;;2.83;1.27;;;17.40;99.90;;;;;;4196359;28;20231;-76
2022/02/06 08:50:24;;;;;;;4.03;1.60;;;17.40;99.90;;;;;;4196341;28;20219;-76
2022/02/06 08:52:29;;;;;;;4.90;1.42;;;17.40;99.90;;;;;;4194126;28;20215;-77
2022/02/06 08:54:34;;;;;;;3.67;1.50;;;17.40;99.90;;;;;;4196262;28;20250;-77
2022/02/06 08:56:39;;;;;;;2.60;1.13;;;17.30;99.90;;;;;;4196040;28;20661;-78
2022/02/06 08:58:41;;;;;;;3.28;1.25;;;17.30;99.90;;;;;;4196675;28;20215;-78
2022/02/06 09:00:44;;;;;;;3.63;1.40;;;17.30;99.90;;;;;;4195261;28;20273;-77
2022/02/06 09:02:48;;;;;;;3.05;1.42;;;17.40;99.90;;;;;;4195071;28;20448;-77
2022/02/06 09:04:50;;;;;;;1.92;1.20;;;17.40;99.90;;;;;;4196124;28;20630;-77
2022/02/06 09:06:54;;;;;;;2.55;1.40;;;17.40;99.90;;;;;;4195360;28;20210;-77
2022/02/06 09:08:58;;;;;;;2.97;1.15;;;17.40;99.90;;;;;;4196762;28;20211;-77
2022/02/06 09:11:00;;;;;;;2.85;1.60;;;17.40;99.90;;;;;;4196455;28;20257;-77
2022/02/06 09:13:04;;;;;;;2.97;1.20;;;17.40;99.90;;;;;;4196322;28;20277;-77
2022/02/06 09:15:14;;;;;;;2.47;1.20;;;17.40;99.90;;;;;;4196552;28;20272;-77
2022/02/06 09:17:17;;;;;;;3.22;1.38;;;17.30;99.90;;;;;;4194773;28;20712;-77
2022/02/06 09:19:21;;;;;;;1.65;1.05;;;17.30;99.90;;;;;;4194518;28;20207;-77
2022/02/06 09:21:24;;;;;;;2.17;1.15;;;17.30;99.90;;;;;;4195356;28;20246;-77
2022/02/06 09:23:26;;;;;;;3.83;1.60;;;17.40;99.90;;;;;;4192916;28;20215;-77
2022/02/06 09:25:29;;;;;;;2.92;1.40;;;17.40;99.90;;;;;;4195586;28;20304;-78
2022/02/06 09:27:35;;;;;;;3.00;1.20;;;17.40;99.90;;;;;;4195769;28;21717;-77
2022/02/06 09:29:40;;;;;;;2.60;1.40;;;17.40;99.90;;;;;;4194684;28;20292;-77
2022/02/06 09:31:42;;;;;;;2.40;1.15;;;17.30;99.90;;;;;;4196350;28;20656;-78
2022/02/06 09:35:50;;;;;;;4.00;1.05;;;17.40;99.90;;;;;;4195824;28;20191;-77
2022/02/06 09:37:53;;;;;;;2.03;1.20;;;17.40;99.90;;;;;;4194799;28;20273;-78
2022/02/06 09:39:59;;;;;;;3.22;1.33;;;17.40;99.90;;;;;;4196173;28;20215;-77
2022/02/06 09:42:02;;;;;;;2.70;1.10;;;17.40;99.90;;;;;;4196204;28;20215;-77
2022/02/06 09:44:06;;;;;;;2.40;1.40;;;17.30;99.90;;;;;;4195893;28;20273;-76
2022/02/06 09:46:10;;;;;;;2.75;1.00;;;17.40;99.90;;;;;;4196877;28;20223;-76
2022/02/06 09:48:14;;;;;;;1.95;1.00;;;17.30;99.90;;;;;;4196596;28;20625;-76
2022/02/06 09:50:16;;;;;;;2.10;0.90;;;17.40;99.90;;;;;;4195440;28;20660;-76
2022/02/06 09:52:25;;;;;;;2.83;1.08;;;17.30;99.90;;;;;;4193977;28;20219;-76
2022/02/06 09:54:29;;;;;;;3.05;1.25;;;17.30;99.90;;;;;;4195036;28;20219;-76
2022/02/06 09:56:35;;;;;;;2.90;1.30;;;17.40;99.90;;;;;;4193885;28;20261;-75
2022/02/06 09:58:57;;;;;;;2.05;1.20;;;17.30;99.90;;;;;;4196466;28;20204;-75
2022/02/06 10:00:59;;;;;;;1.92;0.90;;;17.30;99.90;;;;;;4195194;28;20962;-75
2022/02/06 10:03:04;;;;;;;2.30;1.30;;;17.30;99.90;;;;;;4195985;28;20249;-76
2022/02/06 10:05:08;;;;;;;3.55;1.35;;;17.30;99.90;;;;;;4196148;28;20604;-75
2022/02/06 10:07:14;;;;;;;2.45;1.20;;;17.30;99.90;;;;;;4195067;28;20214;-75
2022/02/06 10:09:26;;;;;;;2.08;1.20;;;17.30;99.90;;;;;;4195945;28;20307;-75
2022/02/06 10:11:30;;;;;;;2.10;1.13;;;17.30;99.90;;;;;;4195010;28;20288;-75
2022/02/06 10:13:36;;;;;;;2.30;1.17;;;17.30;99.90;;;;;;4195205;28;20647;-75
2022/02/06 10:15:38;;;;;;;2.20;1.10;;;17.30;99.90;;;;;;4195357;28;20219;-76
2022/02/06 10:17:41;;;;;;;2.58;1.08;;;17.30;99.90;;;;;;4195115;28;20215;-75
2022/02/06 10:19:51;;;;;;;3.15;1.40;;;17.30;99.90;;;;;;4194843;28;20207;-75
2022/02/06 10:21:53;;;;;;;2.55;0.95;;;17.30;99.90;;;;;;4196159;28;20257;-75
2022/02/06 10:24:01;;;;;;;2.95;1.25;;;17.30;99.90;;;;;;4194305;28;20265;-75
2022/02/06 10:26:19;;;;;;;3.72;1.30;;;17.30;99.90;;;;;;4194759;28;20240;-75
2022/02/06 10:28:37;;;;;;;2.63;1.10;;;17.30;99.90;;;;;;4196165;28;20227;-76
2022/02/06 10:30:42;;;;;;;1.92;1.05;;;17.30;99.90;;;;;;4195759;28;20323;-75
2022/02/06 10:32:46;;;;;;;2.40;1.10;;;17.30;99.90;;;;;;4193496;28;20215;-75
2022/02/06 10:34:48;;;;;;;2.15;1.13;;;17.30;99.90;;;;;;4194733;28;20237;-75
2022/02/06 10:36:52;;;;;;;2.17;1.15;;;17.20;99.90;;;;;;4195015;28;20637;-75
2022/02/06 10:39:02;;;;;;;3.28;1.10;;;17.30;99.90;;;;;;4196440;28;20207;-75
2022/02/06 10:41:08;;;;;;;2.75;1.33;;;17.30;99.90;;;;;;4196373;28;20212;-76
2022/02/06 10:43:11;;;;;;;2.53;1.10;;;17.30;99.90;;;;;;4194530;28;20633;-75
2022/02/06 10:45:17;;;;;;;2.53;1.20;;;17.30;99.90;;;;;;4195982;28;20601;-75
2022/02/06 10:47:32;;;;;;;2.47;1.10;;;17.30;99.90;;;;;;4196994;28;20272;-75
2022/02/06 10:49:35;;;;;;;1.88;1.05;;;17.20;99.90;;;;;;4196978;28;20230;-75
2022/02/06 10:51:40;;;;;;;2.53;0.90;;;17.30;99.90;;;;;;4195763;28;20219;-75
2022/02/06 10:53:59;;;;;;;2.92;1.25;;;17.30;99.90;;;;;;4194760;28;20215;-75
2022/02/06 10:56:02;;;;;;;2.05;1.10;;;17.20;99.90;;;;;;4195448;28;20748;-75
2022/02/06 10:58:06;;;;;;;1.60;1.20;;;17.30;99.90;;;;;;4199131;28;20211;-75
2022/02/06 11:00:09;;;;;;;2.05;0.90;;;17.30;99.90;;;;;;4199333;28;20272;-75
2022/02/06 11:02:23;;;;;;;2.50;1.20;;;17.30;99.90;;;;;;4199241;28;20223;-75
2022/02/06 11:04:32;;;;;;;2.08;1.17;;;17.20;99.90;;;;;;4197242;28;20214;-75
2022/02/06 11:06:44;;;;;;;1.67;0.82;;;17.30;99.90;;;;;;4197872;28;20260;-75
2022/02/06 11:08:46;;;;;;;1.45;0.90;;;17.30;99.90;;;;;;4199076;28;20249;-75
2022/02/06 11:10:59;;;;;;;1.90;0.90;;;17.30;99.90;;;;;;4199618;28;20664;-75
2022/02/06 11:13:03;;;;;;;4.20;1.50;;;17.20;99.90;;;;;;4199079;28;20215;-75
2022/02/06 11:15:23;;;;;;;1.70;0.85;;;17.30;99.90;;;;;;4199575;28;20241;-75
2022/02/06 11:17:29;;;;;;;1.70;1.00;;;17.20;99.90;;;;;;4197448;28;20210;-75
2022/02/06 11:19:31;;;;;;;1.58;1.02;;;17.20;99.90;;;;;;4198062;28;20215;-75
2022/02/06 11:21:36;;;;;;;1.80;0.80;;;17.30;99.90;;;;;;4198802;28;20207;-75
2022/02/06 11:23:52;;;;;;;2.72;1.40;;;17.20;99.90;;;;;;4197452;28;20669;-75
2022/02/06 11:25:55;;;;;;;2.75;1.02;;;17.20;99.90;;;;;;4199109;28;20223;-76
2022/02/06 11:27:57;;;;;;;1.77;1.00;;;17.30;99.90;;;;;;4199154;28;20606;-75
2022/02/06 11:30:00;;;;;;;2.33;1.23;;;17.20;99.90;;;;;;4199163;28;20239;-75
2022/02/06 11:32:05;;;;;;;1.98;1.00;;;17.20;99.90;;;;;;4198745;28;20214;-75
2022/02/06 11:34:09;;;;;;;3.97;1.27;;;17.30;99.90;;;;;;4196377;28;20219;-75
2022/02/06 11:36:18;;;;;;;1.85;1.00;;;17.20;99.90;;;;;;4199530;28;20237;-75
2022/02/06 11:43:51;;;;;;;2.00;1.00;;;17.30;99.90;;;;;;4198742;28;20195;-75
2022/02/06 11:45:56;;;;;;;1.95;1.08;;;17.30;99.90;;;;;;4198992;28;20211;-75
2022/02/06 11:48:04;;;;;;;1.65;0.95;;;17.30;99.90;;;;;;4197241;28;20215;-75
2022/02/06 11:50:10;;;;;;;1.50;1.00;;;17.30;99.90;;;;;;4199043;28;20230;-75
2022/02/06 11:52:14;;;;;;;2.88;1.08;;;17.30;99.90;;;;;;4197339;28;20289;-75
2022/02/06 11:54:27;;;;;;;3.15;1.30;;;17.30;99.90;;;;;;4196838;28;20216;-75
2022/02/06 11:56:36;;;;;;;1.70;0.98;;;17.30;99.90;;;;;;4194770;28;20949;-75
2022/02/06 11:58:40;;;;;;;2.28;1.13;;;17.30;99.90;;;;;;4198347;28;20257;-76
2022/02/06 12:00:42;;;;;;;3.42;1.42;;;17.30;99.90;;;;;;4196700;28;20214;-75
2022/02/06 12:02:47;;;;;;;1.33;1.00;;;17.30;99.90;;;;;;4199203;28;20215;-75
2022/02/06 12:05:12;;;;;;;3.10;1.17;;;17.30;99.90;;;;;;4199714;28;20219;-75
2022/02/06 12:07:15;;;;;;;2.60;1.00;;;17.30;99.90;;;;;;4198985;28;20552;-75
2022/02/06 12:09:19;;;;;;;2.75;1.40;;;17.30;99.90;;;;;;4198701;28;20235;-75
2022/02/06 12:11:22;;;;;;;2.88;1.17;;;17.30;99.90;;;;;;4199400;28;20214;-75
2022/02/06 12:13:30;;;;;;;2.45;1.20;;;17.30;99.90;;;;;;4198917;28;20627;-76
2022/02/06 12:15:34;;;;;;;1.23;0.88;;;17.30;99.90;;;;;;4196232;28;20663;-75
2022/02/06 12:18:05;;;;;;;1.48;0.90;;;17.30;99.90;;;;;;4196831;28;20223;-75
2022/02/06 12:20:11;;;;;;;2.10;1.13;;;17.30;99.90;;;;;;4196146;28;20207;-76
2022/02/06 12:22:38;;;;;;;2.95;1.10;;;17.20;99.90;;;;;;4196448;28;20555;-75
2022/02/06 12:24:44;;;;;;;2.92;1.20;;;17.20;99.90;;;;;;4198677;28;20961;-75
2022/02/06 12:26:47;;;;;;;2.75;1.10;;;17.20;99.90;;;;;;4198692;28;20211;-76
2022/02/06 12:28:52;;;;;;;2.45;0.88;;;17.20;99.90;;;;;;4199001;28;20656;-75
2022/02/06 12:31:14;;;;;;;2.30;0.90;;;17.20;99.90;;;;;;4199070;28;20273;-75